Flight Track Log - Related Links

Times and Time Zones

All times are in EST time to prevent confusion due to time zone crossing. See the N589H flight status page for this flight to view local times or setup timezone preferences in your user account.

Time Position Orientation Groundspeed Altitude Reporting Facility
EST Latitude Longitude Course Direction KTS MPH feet Rate Location/Type
Tue 07:44:31 PM 40.0667 -75.0333 270° West 147 169 800  Level Philadelphia TRACON
Tue 07:45:37 PM 40.0667 -75.1000 270° West 194 223 2,800 1,905 Climbing Philadelphia TRACON
Tue 07:46:37 PM 40.0500 -75.1500 246° West 178 205 4,800 1,100 Climbing Philadelphia TRACON
Tue 07:47:37 PM 40.0167 -75.2167 237° Southwest 223 257 5,000 50 Climbing Philadelphia TRACON
Tue 07:48:37 PM 39.9833 -75.2833 237° Southwest 235 270 4,900 1,865 Descending Philadelphia TRACON
Tue 07:50:50 PM 39.9336 -75.4408 248° West 203 234 11,000 1,834 Climbing New York Center
Tue 07:51:50 PM 39.9286 -75.5108 265° West 189 217 10,800 550 Descending New York Center
Tue 07:52:50 PM 39.9219 -75.5753 262° West 184 212 12,100 1,650 Climbing New York Center
Tue 07:53:50 PM 39.9008 -75.6333 245° Southwest 190 219 14,100 2,100 Climbing New York Center
Tue 07:54:50 PM 39.8750 -75.6992 243° Southwest 190 219 16,300 1,850 Climbing New York Center
Tue 07:55:50 PM 39.8561 -75.7494 244° Southwest 190 219 17,800 1,300 Climbing New York Center
Tue 07:56:50 PM 39.8286 -75.8122 240° Southwest 195 224 18,900 1,300 Climbing New York Center
Tue 07:57:50 PM 39.7969 -75.8667 233° Southwest 195 224 20,400 1,500 Climbing New York Center
Tue 07:58:50 PM 39.7675 -75.9214 235° Southwest 195 224 21,900 1,461 Climbing New York Center
Tue 08:01:40 PM 39.6317 -76.0361 213° Southwest 209 241 26,000 1,357 Climbing Washington Center
Tue 08:02:40 PM 39.5833 -76.0761 213° Southwest 209 241 27,100 1,289 Climbing Washington Center
Tue 08:03:41 PM 39.5375 -76.1108 210° Southwest 209 241 28,600 1,131 Climbing Washington Center
Tue 08:04:42 PM 39.4936 -76.1456 211° Southwest 203 234 29,400 706 Climbing Washington Center
Tue 08:05:40 PM 39.4456 -76.1856 213° Southwest 203 234 30,000 555 Climbing Washington Center
Tue 08:06:41 PM 39.4014 -76.2333 220° Southwest 203 234 30,500 541 Climbing Washington Center
Tue 08:07:42 PM 39.3511 -76.2786 215° Southwest 219 252 31,100 545 Climbing Washington Center
Tue 08:08:42 PM 39.3072 -76.3264 220° Southwest 219 252 31,600 496 Climbing Washington Center
Tue 08:09:43 PM 39.2672 -76.3744 223° Southwest 214 246 32,100 508 Climbing Washington Center
Tue 08:10:40 PM 39.2231 -76.4247 221° Southwest 214 246 32,600 508 Climbing Washington Center
Tue 08:11:41 PM 39.1831 -76.4753 224° Southwest 214 246 33,100 446 Climbing Washington Center
Tue 08:12:41 PM 39.1411 -76.5228 221° Southwest 214 246 33,500 443 Climbing Washington Center
Tue 08:13:43 PM 39.1011 -76.5733 224° Southwest 214 246 34,000 504 Climbing Washington Center
Tue 08:14:40 PM 39.0592 -76.6208 221° Southwest 214 246 34,500 508 Climbing Washington Center
Tue 08:15:41 PM 39.0150 -76.6631 217° Southwest 214 246 35,000 492 Climbing Washington Center
Tue 08:16:42 PM 38.9644 -76.7022 211° Southwest 214 246 35,500 496 Climbing Washington Center
Tue 08:17:42 PM 38.9142 -76.7414 211° Southwest 214 246 36,000 248 Climbing Washington Center
Tue 08:18:43 PM 38.8636 -76.7806 211° Southwest 214 246 36,000  Level Washington Center
Tue 08:19:40 PM 38.8092 -76.8225 211° Southwest 221 254 36,000  Level Washington Center
Tue 08:20:41 PM 38.7522 -76.8667 211° Southwest 227 261 36,000  Level Washington Center
Tue 08:21:41 PM 38.6956 -76.9136 213° Southwest 237 273 36,000  Level Washington Center
Tue 08:22:42 PM 38.6389 -76.9553 210° Southwest 237 273 36,000  Level Washington Center
Tue 08:23:43 PM 38.5797 -77.0044 213° Southwest 242 278 36,000  Level Washington Center
Tue 08:24:40 PM 38.5189 -77.0483 209° Southwest 247 284 36,000  Level Washington Center
Tue 08:25:42 PM 38.4600 -77.0950 212° Southwest 247 284 36,000  Level Washington Center
Tue 08:26:42 PM 38.3989 -77.1414 211° Southwest 252 290 36,000  Level Washington Center
Tue 08:27:40 PM 38.3378 -77.1878 211° Southwest 257 296 36,000  Level Washington Center
Tue 08:28:43 PM 38.2767 -77.2342 211° Southwest 257 296 36,000  Level Washington Center
Tue 08:29:41 PM 38.2156 -77.2831 212° Southwest 257 296 36,000  Level Washington Center
Tue 08:30:41 PM 38.1525 -77.3267 209° Southwest 257 296 36,000  Level Washington Center
Tue 08:31:42 PM 38.0911 -77.3753 212° Southwest 257 296 36,000  Level Washington Center
Tue 08:32:40 PM 38.0364 -77.4161 210° Southwest 257 296 36,000  Level Washington Center
Tue 08:33:41 PM 37.9753 -77.4622 211° Southwest 257 296 36,000  Level Washington Center
Tue 08:34:41 PM 37.9139 -77.5081 211° Southwest 257 296 36,000  Level Washington Center
Tue 08:35:42 PM 37.8528 -77.5564 212° Southwest 257 296 36,000  Level Washington Center
Tue 08:36:42 PM 37.7914 -77.6022 211° Southwest 257 296 36,000  Level Washington Center
Tue 08:37:40 PM 37.7322 -77.6478 211° Southwest 257 296 36,000  Level Washington Center
Tue 08:38:40 PM 37.6667 -77.6958 210° Southwest 257 296 36,000  Level Washington Center
Tue 08:39:42 PM 37.6075 -77.7414 211° Southwest 257 296 36,000  Level Washington Center
Tue 08:40:40 PM 37.5442 -77.7867 210° Southwest 257 296 36,000  Level Washington Center
Tue 08:41:40 PM 37.4828 -77.8322 210° Southwest 257 296 36,000  Level Washington Center
Tue 08:42:41 PM 37.4214 -77.8775 210° Southwest 257 296 36,000  Level Washington Center
Tue 08:43:41 PM 37.3600 -77.9253 212° Southwest 257 296 36,000  Level Washington Center
Tue 08:44:40 PM 37.2967 -77.9675 208° Southwest 262 302 36,000  Level Washington Center
Tue 08:45:42 PM 37.2372 -78.0153 213° Southwest 262 302 36,000  Level Washington Center
Tue 08:46:40 PM 37.1675 -78.0653 210° Southwest 263 303 36,000  Level Washington Center
Tue 08:47:41 PM 37.1058 -78.1128 212° Southwest 263 303 36,000  Level Washington Center
Tue 08:48:42 PM 37.0467 -78.1578 211° Southwest 263 303 36,000  Level Washington Center
Tue 08:49:42 PM 36.9831 -78.2050 211° Southwest 258 297 36,000  Level Washington Center
Tue 08:50:40 PM 36.9172 -78.2522 210° Southwest 264 304 36,000  Level Washington Center
Tue 08:51:41 PM 36.8558 -78.2967 210° Southwest 264 304 36,000  Level Washington Center
Tue 08:52:41 PM 36.7922 -78.3436 211° Southwest 264 304 36,000  Level Washington Center
Tue 08:53:42 PM 36.7283 -78.3933 212° Southwest 264 304 36,000  Level Washington Center
Tue 08:54:42 PM 36.6667 -78.4403 211° Southwest 269 310 36,000  Level Washington Center
Tue 08:55:43 PM 36.6008 -78.4869 210° Southwest 269 310 36,000  Level Washington Center
Tue 08:56:41 PM 36.5372 -78.5339 211° Southwest 269 310 36,000  Level Washington Center
Tue 08:57:42 PM 36.4736 -78.5778 209° Southwest 274 315 36,000  Level Washington Center
Tue 08:58:40 PM 36.4078 -78.6244 210° Southwest 274 315 36,000  Level Washington Center
Tue 08:59:41 PM 36.3439 -78.6708 210° Southwest 274 315 36,000  Level Washington Center
Tue 09:00:41 PM 36.2800 -78.7175 210° Southwest 274 315 36,000  Level Washington Center
Tue 09:01:42 PM 36.2183 -78.7639 211° Southwest 274 315 36,000  Level Washington Center
Tue 09:02:42 PM 36.1544 -78.8103 210° Southwest 274 315 36,000  Level Washington Center
Tue 09:03:40 PM 36.0908 -78.8539 209° Southwest 269 310 36,000  Level Washington Center
Tue 09:04:40 PM 36.0269 -78.8975 209° Southwest 269 310 36,000  Level Washington Center
Tue 09:05:41 PM 35.9608 -78.9461 211° Southwest 274 315 36,000  Level Washington Center
Tue 09:06:42 PM 35.8992 -78.9919 211° Southwest 274 315 36,000  Level Washington Center
Tue 09:07:40 PM 35.8353 -79.0356 209° Southwest 274 315 36,000  Level Washington Center
Tue 09:08:40 PM 35.7714 -79.0789 209° Southwest 274 315 36,000  Level Washington Center
Tue 09:09:40 PM 35.7053 -79.1269 211° Southwest 274 315 36,000  Level Washington Center
Tue 09:10:41 PM 35.6414 -79.1728 210° Southwest 274 315 36,000  Level Washington Center
Tue 09:11:42 PM 35.5794 -79.2158 209° Southwest 274 315 36,000  Level Washington Center
Tue 09:12:40 PM 35.5156 -79.2617 210° Southwest 274 315 36,000  Level Washington Center
Tue 09:13:41 PM 35.4581 -79.3022 210° Southwest 274 315 36,000  Level Washington Center
Tue 09:14:42 PM 35.3875 -79.3525 210° Southwest 274 315 36,000  Level Washington Center
Tue 09:15:41 PM 35.3300 -79.3906 208° Southwest 274 315 36,000  Level Washington Center
Tue 09:16:42 PM 35.2575 -79.4406 209° Southwest 274 315 36,000  Level Washington Center
Tue 09:17:42 PM 35.1933 -79.4883 211° Southwest 274 315 36,000  Level Washington Center
Tue 09:19:49 PM 35.0531 -79.5836 209° Southwest 262 302 36,000  Level Jacksonville Center
Tue 09:20:49 PM 34.9872 -79.6267 208° Southwest 262 302 36,000  Level Jacksonville Center
Tue 09:21:50 PM 34.9217 -79.6722 210° Southwest 262 302 36,000  Level Jacksonville Center
Tue 09:22:49 PM 34.8583 -79.7150 209° Southwest 262 302 36,000  Level Jacksonville Center
Tue 09:23:50 PM 34.7947 -79.7578 209° Southwest 262 302 36,000  Level Jacksonville Center
Tue 09:24:49 PM 34.7292 -79.8056 211° Southwest 262 302 36,000  Level Jacksonville Center
Tue 09:25:49 PM 34.6633 -79.8458 207° Southwest 262 302 36,000  Level Jacksonville Center
Tue 09:26:49 PM 34.5911 -79.8736 198° South 267 307 36,000  Level Jacksonville Center
Tue 09:27:49 PM 34.5292 -79.9036 202° Southwest 272 313 36,000  Level Jacksonville Center
Tue 09:28:49 PM 34.4589 -79.9361 201° Southwest 272 313 36,000  Level Jacksonville Center
Tue 09:29:50 PM 34.3867 -79.9664 199° South 272 313 36,000  Level Jacksonville Center
Tue 09:30:49 PM 34.3144 -80.0014 202° Southwest 272 313 36,000  Level Jacksonville Center
Tue 09:31:49 PM 34.2442 -80.0339 201° Southwest 277 319 36,000  Level Jacksonville Center
Tue 09:32:49 PM 34.1719 -80.0664 200° South 277 319 36,000  Level Jacksonville Center
Tue 09:33:50 PM 34.0975 -80.0989 200° South 282 325 36,000  Level Jacksonville Center
Tue 09:34:50 PM 34.0253 -80.1314 200° South 282 325 36,000  Level Jacksonville Center
Tue 09:35:49 PM 33.9531 -80.1636 200° South 282 325 36,000  Level Jacksonville Center
Tue 09:36:50 PM 33.8806 -80.1983 202° Southwest 282 325 36,000  Level Jacksonville Center
Tue 09:37:50 PM 33.8083 -80.2306 200° South 282 325 36,000  Level Jacksonville Center
Tue 09:38:49 PM 33.7358 -80.2603 199° South 282 325 36,000  Level Jacksonville Center
Tue 09:39:49 PM 33.6636 -80.2950 202° Southwest 282 325 36,000  Level Jacksonville Center
Tue 09:40:49 PM 33.5911 -80.3269 200° South 282 325 36,000  Level Jacksonville Center
Tue 09:41:50 PM 33.5189 -80.3589 200° South 282 325 36,000  Level Jacksonville Center
Tue 09:42:49 PM 33.4464 -80.3883 199° South 282 325 36,000  Level Jacksonville Center
Tue 09:43:49 PM 33.3761 -80.4228 202° Southwest 282 325 36,000  Level Jacksonville Center
Tue 09:44:49 PM 33.3017 -80.4544 200° South 282 325 36,000  Level Jacksonville Center
Tue 09:45:49 PM 33.2314 -80.4889 202° Southwest 282 325 36,000  Level Jacksonville Center
Tue 09:46:49 PM 33.1567 -80.5206 200° South 287 330 36,000  Level Jacksonville Center
Tue 09:47:49 PM 33.0822 -80.5522 200° South 287 330 36,000  Level Jacksonville Center
Tue 09:48:50 PM 33.0097 -80.5814 199° South 287 330 36,000  Level Jacksonville Center
Tue 09:49:49 PM 32.9353 -80.6156 201° Southwest 287 330 36,000  Level Jacksonville Center
Tue 09:50:50 PM 32.8544 -80.6497 200° South 287 330 36,000  Level Jacksonville Center
Tue 09:51:50 PM 32.7797 -80.6811 199° South 287 330 36,000  Level Jacksonville Center
Tue 09:52:49 PM 32.7072 -80.7125 200° South 287 330 36,000  Level Jacksonville Center
Tue 09:53:50 PM 32.6325 -80.7439 199° South 287 330 36,000  Level Jacksonville Center
Tue 09:54:49 PM 32.5603 -80.7778 202° Southwest 287 330 36,000  Level Jacksonville Center
Tue 09:55:49 PM 32.4856 -80.8092 200° South 287 330 36,000  Level Jacksonville Center
Tue 09:56:50 PM 32.4131 -80.8403 200° South 287 330 36,000  Level Jacksonville Center
Tue 09:57:50 PM 32.3383 -80.8739 201° Southwest 287 330 36,000  Level Jacksonville Center
Tue 09:58:50 PM 32.2719 -80.9025 200° South 287 330 36,000  Level Jacksonville Center
Tue 09:59:50 PM 32.1911 -80.9386 201° Southwest 287 330 36,000  Level Jacksonville Center
Tue 10:00:50 PM 32.1164 -80.9694 199° South 287 330 36,000  Level Jacksonville Center
Tue 10:01:50 PM 32.0481 -80.9978 199° South 287 330 36,000 150 Level Jacksonville Center
Tue 10:02:50 PM 31.9669 -81.0314 199° South 287 330 36,300 353 Climbing Jacksonville Center
Tue 10:03:49 PM 31.9006 -81.0597 200° South 287 330 36,700 400 Climbing Jacksonville Center
Tue 10:04:50 PM 31.8217 -81.0931 200° South 287 330 37,100 300 Climbing Jacksonville Center
Tue 10:05:49 PM 31.7514 -81.1261 202° Southwest 282 325 37,300 250 Climbing Jacksonville Center
Tue 10:06:50 PM 31.6847 -81.1519 198° South 282 325 37,600 347 Climbing Jacksonville Center
Tue 10:07:50 PM 31.6081 -81.1825 199° South 277 319 38,000 202 Climbing Jacksonville Center
Tue 10:08:49 PM 31.5353 -81.2131 200° South 277 319 38,000  Level Jacksonville Center
Tue 10:09:50 PM 31.4708 -81.2411 200° South 277 319 38,000  Level Jacksonville Center
Tue 10:10:50 PM 31.3900 -81.2767 201° Southwest 277 319 38,000  Level Jacksonville Center
Tue 10:11:50 PM 31.3214 -81.3022 198° South 283 326 38,000  Level Jacksonville Center
Tue 10:12:50 PM 31.2467 -81.3375 202° Southwest 283 326 38,000  Level Jacksonville Center
Tue 10:13:50 PM 31.1719 -81.3678 199° South 283 326 38,000  Level Jacksonville Center
Tue 10:14:50 PM 31.0972 -81.4006 201° Southwest 288 331 38,000  Level Jacksonville Center
Tue 10:15:49 PM 31.0222 -81.4308 199° South 288 331 38,000  Level Jacksonville Center
Tue 10:16:49 PM 30.9453 -81.4611 199° South 288 331 38,000  Level Jacksonville Center
Tue 10:17:50 PM 30.8747 -81.4936 202° Southwest 288 331 38,000  Level Jacksonville Center
Tue 10:18:49 PM 30.7978 -81.5236 199° South 288 331 38,000  Level Jacksonville Center
Tue 10:19:49 PM 30.7231 -81.5561 201° Southwest 288 331 38,000  Level Jacksonville Center
Tue 10:20:50 PM 30.6481 -81.5861 199° South 288 331 38,000  Level Jacksonville Center
Tue 10:21:50 PM 30.5753 -81.6161 200° South 288 331 38,000  Level Jacksonville Center
Tue 10:22:50 PM 30.5006 -81.6436 198° South 288 331 38,000 -403 Level Jacksonville Center
Tue 10:23:49 PM 30.4172 -81.6786 200° South 288 331 37,200 -900 Descending Jacksonville Center
Tue 10:24:50 PM 30.3383 -81.7083 198° South 293 337 36,200 -1,050 Descending Jacksonville Center
Tue 10:25:49 PM 30.2572 -81.7406 199° South 299 344 35,100 -958 Descending Jacksonville Center
Tue 10:26:49 PM 30.1864 -81.7728 201° Southwest 305 351 34,300 -893 Descending Jacksonville Center
Tue 10:27:50 PM 30.1075 -81.8050 199° South 305 351 33,300 -1,050 Descending Jacksonville Center
Tue 10:28:49 PM 30.0264 -81.8394 200° South 311 358 32,200 -1,100 Descending Jacksonville Center
Tue 10:29:50 PM 29.9389 -81.8786 201° Southwest 311 358 31,100 -1,091 Descending Jacksonville Center
Tue 10:30:50 PM 29.8578 -81.9106 199° South 306 352 30,000 -1,050 Descending Jacksonville Center
Tue 10:31:50 PM 29.7767 -81.9425 199° South 306 352 29,000 -1,008 Descending Jacksonville Center
Tue 10:32:49 PM 29.6975 -81.9769 201° Southwest 306 352 28,000 -1,008 Descending Jacksonville Center
Tue 10:33:49 PM 29.6164 -82.0086 199° South 306 352 27,000 -950 Descending Jacksonville Center
Tue 10:34:49 PM 29.5433 -82.0381 199° South 306 352 26,100 -942 Descending Jacksonville Center
Tue 10:35:50 PM 29.4642 -82.0672 198° South 306 352 25,100 -1,000 Descending Jacksonville Center
Tue 10:36:49 PM 29.3872 -82.0989 200° South 306 352 24,100 -1,008 Descending Jacksonville Center
Tue 10:37:49 PM 29.3103 -82.1306 200° South 306 352 23,100 -900 Descending Jacksonville Center
Tue 10:38:49 PM 29.2372 -82.1619 201° Southwest 301 346 22,300 -850 Descending Jacksonville Center
Tue 10:39:49 PM 29.1644 -82.1886 198° South 290 334 21,400 -1,000 Descending Jacksonville Center
Tue 10:40:49 PM 29.0914 -82.2178 199° South 290 334 20,300 -1,041 Descending Jacksonville Center
Tue 10:41:50 PM 29.0186 -82.2492 201° Southwest 290 334 19,300 -1,041 Descending Jacksonville Center
Tue 10:42:50 PM 28.9456 -82.2803 200° South 290 334 18,200 -950 Descending Jacksonville Center
Tue 10:43:50 PM 28.8747 -82.3092 200° South 290 334 17,400 -1,091 Descending Jacksonville Center
Tue 10:45:35 PM 28.7333 -82.3667 200° South 276 318 15,200 -1,200 Descending Tampa TRACON
Tue 10:46:35 PM 28.6667 -82.3833 192° South 275 316 14,100 -1,050 Descending Tampa TRACON
Tue 10:47:35 PM 28.6000 -82.4167 204° Southwest 274 315 13,100 -1,050 Descending Tampa TRACON
Tue 10:48:35 PM 28.5167 -82.4500 199° South 275 316 12,000 -1,050 Descending Tampa TRACON
Tue 10:49:35 PM 28.4500 -82.4667 192° South 274 315 11,000 -783 Descending Tampa TRACON
Tue 10:50:30 PM 28.3833 -82.5000 204° Southwest 262 302 10,500 -771 Descending Tampa TRACON
Tue 10:51:24 PM 28.3333 -82.5500 221° Southwest 257 296 9,600 -1,050 Descending Tampa TRACON
Tue 10:52:30 PM 28.2667 -82.6000 213° Southwest 265 305 8,400 -1,050 Descending Tampa TRACON
Tue 10:53:24 PM 28.2167 -82.6500 221° Southwest 269 310 7,500 -1,053 Descending Tampa TRACON
Tue 10:54:24 PM 28.1667 -82.7000 221° Southwest 266 306 6,400 -1,100 Descending Tampa TRACON
Tue 10:55:24 PM 28.1000 -82.7500 213° Southwest 259 298 5,300 -1,091 Descending Tampa TRACON
Tue 10:56:36 PM 28.0333 -82.7833 204° Southwest 250 288 4,000 -1,045 Descending Tampa TRACON
Tue 10:57:36 PM 27.9667 -82.7667 168° South 246 283 3,000 -500 Descending Tampa TRACON
Tue 10:58:36 PM 27.9000 -82.7667 180° South 206 237 3,000  Level Tampa TRACON
Tue 10:59:48 PM 27.8333 -82.7667 180° South 173 199 3,000  Level Tampa TRACON
Tue 11:00:48 PM 27.7833 -82.7667 180° South 162 186 3,000 -50 Level Tampa TRACON
Tue 11:01:48 PM 27.7500 -82.7500 156° South 170 196 2,900 -500 Descending Tampa TRACON
Tue 11:02:48 PM 27.7333 -82.7000 111° Southeast 183 211 2,000 -500 Descending Tampa TRACON
Tue 11:03:48 PM 27.7667 -82.6667 42° Northeast 179 206 1,900  Descending Tampa TRACON
Tue 11:04:36 PM 27.8000 -82.6667 360° North 170 196 2,000 -333 Climbing Tampa TRACON
Tue 11:05:36 PM 27.8333 -82.6833 336° Northwest 123 142 1,300 -694 Descending Tampa TRACON
Tue 11:06:37 PM 27.8667 -82.6833 360° North 128 147 600 -689 Descending Tampa TRACON

Login

Don't have an account? Register now (free) for customized features, flight alerts, and more!